Time;durP1;ratioP1;P1;durP2;ratioP2;P2;SDS_P1;SDS_P2;PMS_P1;PMS_P2;Temp;Humidity;BMP_temperature;BMP_pressure;BME280_temperature;BME280_humidity;BME280_pressure;Samples;Min_cycle;Max_cycle;Signal;HPM_P1;HPM_P2
2024/02/26 00:02:24;;;;;;;;;;;;;;;17.53;38.21;100551.19;102726;1291;61754;-83
2024/02/26 00:04:50;;;;;;;;;;;;;;;17.53;38.26;100553.88;102722;1293;61408;-82
2024/02/26 00:07:16;;;;;;;;;;;;;;;17.53;38.26;100551.55;102734;1293;61901;-80
2024/02/26 00:09:42;;;;;;;;;;;;;;;17.53;38.26;100553.54;102677;1293;61383;-79
2024/02/26 00:12:07;;;;;;;;;;;;;;;17.52;38.18;100550.88;102658;1292;61757;-80
2024/02/26 00:14:33;;;;;;;;;;;;;;;17.53;38.27;100550.15;102785;1296;62544;-82
2024/02/26 00:16:58;;;;;;;;;;;;;;;17.53;38.29;100549.11;102664;1291;61419;-82
2024/02/26 00:19:24;;;;;;;;;;;;;;;17.52;38.22;100548.77;102674;1291;62384;-81
2024/02/26 00:21:50;;;;;;;;;;;;;;;17.52;38.31;100547.19;102755;1293;61408;-81
2024/02/26 00:24:15;;;;;;;;;;;;;;;17.52;38.31;100548.59;102764;1292;61396;-80
2024/02/26 00:26:41;;;;;;;;;;;;;;;17.52;38.24;100550.92;102630;1292;62071;-80
2024/02/26 00:29:07;;;;;;;;;;;;;;;17.52;38.27;100555.00;102744;1291;61412;-80
2024/02/26 00:31:32;;;;;;;;;;;;;;;17.52;38.29;100555.58;102764;1293;61434;-81
2024/02/26 00:33:58;;;;;;;;;;;;;;;17.51;38.37;100555.77;102719;1291;72594;-82
2024/02/26 00:36:23;;;;;;;;;;;;;;;17.52;38.30;100556.27;102748;1291;61434;-83
2024/02/26 00:38:50;;;;;;;;;;;;;;;17.52;38.27;100553.42;102685;1296;61465;-79
2024/02/26 00:41:17;;;;;;;;;;;;;;;17.51;38.22;100550.06;102690;1292;61408;-80
2024/02/26 00:43:43;;;;;;;;;;;;;;;17.51;38.31;100547.58;102759;1291;61397;-82
2024/02/26 00:46:09;;;;;;;;;;;;;;;17.51;38.34;100542.08;102701;1291;61900;-79
2024/02/26 00:48:35;;;;;;;;;;;;;;;17.51;38.25;100538.69;102695;1292;61379;-80
2024/02/26 00:51:00;;;;;;;;;;;;;;;17.51;38.24;100532.98;102898;1291;61411;-81
2024/02/26 00:53:26;;;;;;;;;;;;;;;17.51;38.28;100533.92;102683;1291;61390;-80
2024/02/26 00:55:52;;;;;;;;;;;;;;;17.51;38.22;100535.15;102566;1291;71409;-81
2024/02/26 00:58:17;;;;;;;;;;;;;;;17.51;38.25;100531.95;102695;1291;61405;-80
2024/02/26 01:00:43;;;;;;;;;;;;;;;17.50;38.33;100531.64;102616;1292;61477;-81
2024/02/26 01:03:10;;;;;;;;;;;;;;;17.50;38.31;100527.89;102657;1291;61381;-80
2024/02/26 01:05:37;;;;;;;;;;;;;;;17.50;38.31;100526.29;102953;1294;62390;-80
2024/02/26 01:08:06;;;;;;;;;;;;;;;17.51;38.30;100521.66;102646;1296;61402;-81
2024/02/26 01:10:34;;;;;;;;;;;;;;;17.50;38.30;100521.50;102668;1291;61392;-84
2024/02/26 01:13:00;;;;;;;;;;;;;;;17.50;38.37;100514.74;102731;1292;61391;-80
2024/02/26 01:15:25;;;;;;;;;;;;;;;17.50;38.29;100516.88;102685;1291;62425;-79
2024/02/26 01:17:51;;;;;;;;;;;;;;;17.50;38.33;100513.85;102605;1292;61555;-81
2024/02/26 01:20:25;;;;;;;;;;;;;;;17.50;38.34;100512.44;102740;1291;62050;-79
2024/02/26 01:22:51;;;;;;;;;;;;;;;17.50;38.30;100507.12;102669;1297;61318;-80
2024/02/26 01:25:18;;;;;;;;;;;;;;;17.50;38.44;100506.92;102686;1291;61897;-80
2024/02/26 01:27:44;;;;;;;;;;;;;;;17.50;38.28;100508.70;102756;1291;73424;-81
2024/02/26 01:30:10;;;;;;;;;;;;;;;17.49;38.30;100505.70;102672;1294;61955;-80
2024/02/26 01:32:36;;;;;;;;;;;;;;;17.49;38.35;100509.47;102641;1296;61359;-82
2024/02/26 01:35:03;;;;;;;;;;;;;;;17.49;38.28;100506.23;102700;1292;61395;-82
2024/02/26 01:37:29;;;;;;;;;;;;;;;17.49;38.29;100501.48;102723;1295;61417;-79
2024/02/26 01:39:55;;;;;;;;;;;;;;;17.49;38.35;100498.45;102665;1291;61403;-80
2024/02/26 01:42:21;;;;;;;;;;;;;;;17.48;38.28;100494.21;102816;1295;61323;-81
2024/02/26 01:44:47;;;;;;;;;;;;;;;17.48;38.38;100490.84;102653;1293;61784;-80
2024/02/26 01:47:13;;;;;;;;;;;;;;;17.48;38.36;100495.64;102707;1296;62250;-80
2024/02/26 01:49:39;;;;;;;;;;;;;;;17.48;38.33;100494.05;102700;1296;61348;-80
2024/02/26 01:52:05;;;;;;;;;;;;;;;17.48;38.29;100491.92;102668;1291;62165;-80
2024/02/26 01:54:40;;;;;;;;;;;;;;;17.48;38.31;100497.61;102656;1296;61476;-80
2024/02/26 01:57:08;;;;;;;;;;;;;;;17.48;38.36;100499.41;102674;1296;72507;-80
2024/02/26 01:59:34;;;;;;;;;;;;;;;17.47;38.36;100499.42;102600;1292;74539;-81
2024/02/26 02:02:01;;;;;;;;;;;;;;;17.47;38.32;100504.23;102746;1296;61838;-82
2024/02/26 02:04:27;;;;;;;;;;;;;;;17.47;38.42;100503.16;102714;1297;61303;-80
2024/02/26 02:06:52;;;;;;;;;;;;;;;17.47;38.35;100506.18;102654;1297;61452;-81
2024/02/26 02:09:18;;;;;;;;;;;;;;;17.47;38.37;100509.02;102817;1291;62007;-81
2024/02/26 02:11:44;;;;;;;;;;;;;;;17.47;38.37;100508.15;102608;1296;61353;-84
2024/02/26 02:14:10;;;;;;;;;;;;;;;17.47;38.30;100505.69;102707;1291;62546;-80
2024/02/26 02:16:36;;;;;;;;;;;;;;;17.47;38.24;100506.20;102730;1296;61363;-84
2024/02/26 02:19:01;;;;;;;;;;;;;;;17.47;38.40;100507.11;102581;1291;72507;-81
2024/02/26 02:21:27;;;;;;;;;;;;;;;17.47;38.31;100506.94;102725;1292;61418;-81
2024/02/26 02:23:52;;;;;;;;;;;;;;;17.47;38.23;100506.55;102725;1297;62085;-81
2024/02/26 02:26:18;;;;;;;;;;;;;;;17.46;38.19;100497.70;102695;1291;61415;-81
2024/02/26 02:28:43;;;;;;;;;;;;;;;17.47;38.33;100498.04;102793;1296;61486;-80
2024/02/26 02:31:09;;;;;;;;;;;;;;;17.47;38.23;100499.47;102776;1292;72288;-81
2024/02/26 02:33:34;;;;;;;;;;;;;;;17.47;38.29;100508.00;102636;1292;61475;-82
2024/02/26 02:36:00;;;;;;;;;;;;;;;17.46;38.35;100506.98;102725;1297;61388;-80
2024/02/26 02:38:26;;;;;;;;;;;;;;;17.46;38.34;100506.98;102655;1291;62258;-80
2024/02/26 02:40:54;;;;;;;;;;;;;;;17.46;38.20;100513.21;102644;1294;61381;-80
2024/02/26 02:43:20;;;;;;;;;;;;;;;17.46;38.27;100518.74;102645;1291;61401;-80
2024/02/26 02:45:45;;;;;;;;;;;;;;;17.46;38.34;100524.98;102754;1296;62713;-80
2024/02/26 02:48:11;;;;;;;;;;;;;;;17.45;38.25;100529.97;102672;1296;61405;-83
2024/02/26 02:50:37;;;;;;;;;;;;;;;17.46;38.26;100532.25;102626;1294;61289;-80
2024/02/26 02:53:03;;;;;;;;;;;;;;;17.45;38.27;100532.29;102696;1297;62656;-82
2024/02/26 02:55:28;;;;;;;;;;;;;;;17.46;38.28;100532.63;102548;1298;62323;-82
2024/02/26 02:57:54;;;;;;;;;;;;;;;17.45;38.25;100531.42;102663;1296;61430;-82
2024/02/26 03:00:20;;;;;;;;;;;;;;;17.45;38.32;100533.35;102702;1291;62081;-80
2024/02/26 03:02:46;;;;;;;;;;;;;;;17.45;38.35;100533.36;102713;1295;61305;-80
2024/02/26 03:05:12;;;;;;;;;;;;;;;17.45;38.24;100533.02;102666;1295;72500;-81
2024/02/26 03:07:38;;;;;;;;;;;;;;;17.45;38.36;100534.64;102757;1297;61362;-81
2024/02/26 03:10:12;;;;;;;;;;;;;;;17.45;38.24;100530.73;102678;1292;62586;-80
2024/02/26 03:12:39;;;;;;;;;;;;;;;17.45;38.26;100534.98;102773;1292;61178;-82
2024/02/26 03:15:05;;;;;;;;;;;;;;;17.44;38.32;100532.16;102632;1296;61472;-81
2024/02/26 03:17:30;;;;;;;;;;;;;;;17.44;38.43;100531.10;102654;1291;62095;-80
2024/02/26 03:19:56;;;;;;;;;;;;;;;17.44;38.26;100531.46;102678;1291;61424;-80
2024/02/26 03:22:21;;;;;;;;;;;;;;;17.43;38.35;100532.20;102854;1296;61393;-81
2024/02/26 03:24:47;;;;;;;;;;;;;;;17.44;38.31;100532.38;102662;1297;62596;-80
2024/02/26 03:27:13;;;;;;;;;;;;;;;17.43;38.31;100528.46;102613;1290;73431;-82
2024/02/26 03:29:38;;;;;;;;;;;;;;;17.44;38.20;100532.38;102859;1295;62480;-81
2024/02/26 03:32:07;;;;;;;;;;;;;;;17.43;38.20;100536.48;102706;1292;61360;-83
2024/02/26 03:34:34;;;;;;;;;;;;;;;17.43;38.30;100533.29;102732;1295;62652;-82
2024/02/26 03:37:00;;;;;;;;;;;;;;;17.43;38.24;100535.25;102755;1297;72361;-81
2024/02/26 03:39:25;;;;;;;;;;;;;;;17.43;38.46;100535.24;102694;1291;62223;-80
2024/02/26 03:41:51;;;;;;;;;;;;;;;17.43;38.28;100540.58;102728;1297;61335;-80
2024/02/26 03:44:17;;;;;;;;;;;;;;;17.43;38.36;100542.73;102683;1293;62112;-81
2024/02/26 03:46:42;;;;;;;;;;;;;;;17.42;38.33;100539.91;102667;1295;61399;-82
2024/02/26 03:49:08;;;;;;;;;;;;;;;17.43;38.30;100535.09;102662;1298;61408;-80
2024/02/26 03:51:34;;;;;;;;;;;;;;;17.42;38.28;100536.34;102674;1294;74675;-82
2024/02/26 03:54:00;;;;;;;;;;;;;;;17.43;38.33;100540.26;102721;1297;61398;-80
2024/02/26 03:56:26;;;;;;;;;;;;;;;17.42;38.23;100541.55;102736;1292;61468;-80
2024/02/26 03:58:51;;;;;;;;;;;;;;;17.42;38.17;100538.18;102693;1291;62182;-80
2024/02/26 04:01:17;;;;;;;;;;;;;;;17.41;38.33;100536.95;102883;1294;61340;-80
2024/02/26 04:03:43;;;;;;;;;;;;;;;17.42;38.18;100538.19;102721;1293;61414;-81
2024/02/26 04:06:10;;;;;;;;;;;;;;;17.42;38.34;100541.39;102752;1293;62125;-81
2024/02/26 04:08:37;;;;;;;;;;;;;;;17.41;38.23;100541.23;102667;1297;62209;-80
2024/02/26 04:11:07;;;;;;;;;;;;;;;17.41;38.28;100535.37;102175;1291;725229;-80
2024/02/26 04:13:39;;;;;;;;;;;;;;;17.41;38.30;100536.08;102825;1292;74541;-81
2024/02/26 04:16:08;;;;;;;;;;;;;;;17.41;38.26;100533.94;102677;1292;62292;-81
2024/02/26 04:18:33;;;;;;;;;;;;;;;17.41;38.37;100534.50;102643;1291;62101;-79
2024/02/26 04:20:59;;;;;;;;;;;;;;;17.41;38.30;100534.50;102662;1292;63468;-80
2024/02/26 04:23:24;;;;;;;;;;;;;;;17.41;38.24;100536.98;102699;1294;63347;-81
2024/02/26 04:25:53;;;;;;;;;;;;;;;17.41;38.24;100536.98;102643;1297;62125;-82
2024/02/26 04:28:26;;;;;;;;;;;;;;;17.40;38.28;100537.89;102720;1296;62189;-80
2024/02/26 04:30:51;;;;;;;;;;;;;;;17.40;38.24;100536.48;102815;1296;72424;-82
2024/02/26 04:33:17;;;;;;;;;;;;;;;17.40;38.22;100538.46;102683;1294;63478;-80
2024/02/26 04:35:42;;;;;;;;;;;;;;;17.40;38.24;100534.55;102668;1297;62371;-80
2024/02/26 04:38:08;;;;;;;;;;;;;;;17.40;38.24;100537.05;102695;1292;62229;-80
2024/02/26 04:40:35;;;;;;;;;;;;;;;17.40;38.24;100539.88;102715;1294;62232;-80
2024/02/26 04:43:01;;;;;;;;;;;;;;;17.39;38.23;100538.13;102787;1292;62255;-81
2024/02/26 04:45:27;;;;;;;;;;;;;;;17.39;38.20;100542.10;102720;1307;62230;-84
2024/02/26 04:47:52;;;;;;;;;;;;;;;17.38;38.27;100549.05;102758;1293;62306;-81
2024/02/26 04:50:18;;;;;;;;;;;;;;;17.38;38.22;100548.39;102891;1292;62188;-81
2024/02/26 04:52:52;;;;;;;;;;;;;;;17.37;38.32;100543.09;102708;1296;62210;-81
2024/02/26 04:55:18;;;;;;;;;;;;;;;17.37;38.23;100540.80;102731;1297;75317;-81
2024/02/26 04:57:43;;;;;;;;;;;;;;;17.37;38.15;100543.46;102810;1295;62204;-85
2024/02/26 05:00:09;;;;;;;;;;;;;;;17.36;38.21;100547.77;102664;1295;62203;-81
2024/02/26 05:02:37;;;;;;;;;;;;;;;17.35;38.19;100547.46;102652;1298;62148;-79
2024/02/26 05:05:05;;;;;;;;;;;;;;;17.35;38.13;100548.57;102701;1296;62238;-81
2024/02/26 05:07:30;;;;;;;;;;;;;;;17.34;38.16;100549.29;102740;1294;62249;-80
2024/02/26 05:09:56;;;;;;;;;;;;;;;17.34;38.23;100548.22;103141;1291;62088;-80
2024/02/26 05:12:21;;;;;;;;;;;;;;;17.35;38.14;100549.98;102956;1296;62224;-80
2024/02/26 05:14:50;;;;;;;;;;;;;;;17.35;38.13;100549.81;102638;1295;62216;-79
2024/02/26 05:17:15;;;;;;;;;;;;;;;17.34;38.12;100547.53;103059;1290;62115;-80
2024/02/26 05:19:41;;;;;;;;;;;;;;;17.34;38.17;100548.08;103108;1295;62206;-81
2024/02/26 05:22:06;;;;;;;;;;;;;;;17.35;38.16;100551.60;102997;1294;63511;-80
2024/02/26 05:24:32;;;;;;;;;;;;;;;17.35;38.19;100564.91;103151;1294;62244;-80
2024/02/26 05:26:58;;;;;;;;;;;;;;;17.36;38.11;100563.61;102804;1290;75318;-80
2024/02/26 05:29:23;;;;;;;;;;;;;;;17.36;38.15;100561.84;102889;1297;63398;-81
2024/02/26 05:31:54;;;;;;;;;;;;;;;17.36;38.10;100561.48;103163;1295;62586;-83
2024/02/26 05:34:19;;;;;;;;;;;;;;;17.36;38.04;100576.41;102722;1296;73464;-82
2024/02/26 05:36:45;;;;;;;;;;;;;;;17.36;38.07;100576.42;103027;1295;63720;-81
2024/02/26 05:39:11;;;;;;;;;;;;;;;17.36;37.94;100585.48;102795;1292;62254;-81
2024/02/26 05:41:43;;;;;;;;;;;;;;;17.35;37.90;100579.67;102827;1290;62237;-83
2024/02/26 05:44:10;;;;;;;;;;;;;;;17.35;37.95;100580.40;102648;1298;72719;-82
2024/02/26 05:46:35;;;;;;;;;;;;;;;17.34;37.82;100583.83;102894;1295;76075;-80
2024/02/26 05:49:01;;;;;;;;;;;;;;;17.34;37.90;100593.27;103297;1289;62529;-80
2024/02/26 05:51:27;;;;;;;;;;;;;;;17.33;37.83;100598.64;103331;1289;62223;-80
2024/02/26 05:53:55;;;;;;;;;;;;;;;17.32;37.85;100595.33;103311;1294;62272;-81
2024/02/26 05:56:21;;;;;;;;;;;;;;;17.31;37.84;100599.11;104141;1297;62282;-81
2024/02/26 05:58:47;;;;;;;;;;;;;;;17.30;37.93;100607.04;103611;1295;62192;-80
2024/02/26 06:01:13;;;;;;;;;;;;;;;17.28;37.89;100602.86;104489;1290;62188;-80
2024/02/26 06:03:39;;;;;;;;;;;;;;;17.28;38.00;100600.03;104793;1289;60227;-80
2024/02/26 06:06:04;;;;;;;;;;;;;;;17.29;38.07;100604.27;104469;1290;61101;-80
2024/02/26 06:08:31;;;;;;;;;;;;;;;17.30;38.12;100604.00;104227;1292;62092;-80
2024/02/26 06:10:56;;;;;;;;;;;;;;;17.33;38.03;100610.06;104195;1292;62010;-81
2024/02/26 06:13:22;;;;;;;;;;;;;;;17.36;38.06;100611.98;104080;1289;62262;-80
2024/02/26 06:15:47;;;;;;;;;;;;;;;17.39;38.03;100610.58;104046;1289;60445;-81
2024/02/26 06:18:13;;;;;;;;;;;;;;;17.42;37.98;100619.81;104163;1293;62713;-82
2024/02/26 06:20:38;;;;;;;;;;;;;;;17.45;38.03;100620.04;104149;1290;62179;-82
2024/02/26 06:23:04;;;;;;;;;;;;;;;17.47;37.95;100618.85;104358;1292;62097;-82
2024/02/26 06:25:30;;;;;;;;;;;;;;;17.48;38.03;100620.52;104623;1289;61562;-82
2024/02/26 06:27:56;;;;;;;;;;;;;;;17.50;37.89;100620.77;104641;1290;60931;-80
2024/02/26 06:30:22;;;;;;;;;;;;;;;17.51;37.83;100626.23;104579;1294;62084;-81
2024/02/26 06:32:47;;;;;;;;;;;;;;;17.53;37.87;100632.89;104819;1294;62188;-81
2024/02/26 06:35:13;;;;;;;;;;;;;;;17.54;37.90;100636.21;104850;1291;61555;-81
2024/02/26 06:37:38;;;;;;;;;;;;;;;17.55;37.86;100638.32;104693;1291;62184;-82
2024/02/26 06:40:06;;;;;;;;;;;;;;;17.55;37.85;100640.09;104522;1290;61378;-81
2024/02/26 06:42:32;;;;;;;;;;;;;;;17.55;37.74;100644.86;104509;1290;62115;-81
2024/02/26 06:44:57;;;;;;;;;;;;;;;17.56;37.78;100644.65;104486;1291;62207;-81
2024/02/26 06:47:23;;;;;;;;;;;;;;;17.58;37.84;100636.81;104264;1291;62222;-80
2024/02/26 06:49:48;;;;;;;;;;;;;;;17.63;38.03;100647.45;104753;1290;62110;-81
2024/02/26 06:52:14;;;;;;;;;;;;;;;17.66;37.90;100646.38;104852;1294;62087;-80
2024/02/26 06:54:40;;;;;;;;;;;;;;;17.70;37.81;100648.64;104721;1294;62217;-81
2024/02/26 06:57:05;;;;;;;;;;;;;;;17.70;37.83;100659.13;104853;1290;60482;-81
2024/02/26 06:59:31;;;;;;;;;;;;;;;17.67;38.04;100665.18;104908;1289;60315;-80
2024/02/26 07:01:56;;;;;;;;;;;;;;;17.66;38.10;100660.60;104884;1291;60750;-80
2024/02/26 07:04:22;;;;;;;;;;;;;;;17.65;38.32;100661.40;104863;1297;60931;-81
2024/02/26 07:06:47;;;;;;;;;;;;;;;17.65;38.20;100669.77;105222;1290;60550;-82
2024/02/26 07:09:13;;;;;;;;;;;;;;;17.64;38.21;100663.77;105296;1291;62191;-81
2024/02/26 07:11:42;;;;;;;;;;;;;;;17.64;38.32;100657.91;105154;1290;62102;-81
2024/02/26 07:14:11;;;;;;;;;;;;;;;17.63;38.30;100659.52;105349;1289;72750;-80
2024/02/26 07:16:37;;;;;;;;;;;;;;;17.63;38.27;100656.33;105276;1290;76497;-81
2024/02/26 07:19:02;;;;;;;;;;;;;;;17.64;38.21;100661.08;105151;1295;60231;-82
2024/02/26 07:21:29;;;;;;;;;;;;;;;17.65;38.14;100657.64;105200;1290;62131;-80
2024/02/26 07:23:54;;;;;;;;;;;;;;;17.66;38.20;100654.19;104993;1289;60534;-81
2024/02/26 07:26:20;;;;;;;;;;;;;;;17.67;38.25;100656.09;105020;1289;62131;-81
2024/02/26 07:28:46;;;;;;;;;;;;;;;17.68;38.10;100658.02;104992;1291;62122;-81
2024/02/26 07:31:11;;;;;;;;;;;;;;;17.68;38.14;100658.54;104710;1291;61916;-78
2024/02/26 07:33:37;;;;;;;;;;;;;;;17.69;38.05;100659.39;104868;1290;62193;-79
2024/02/26 07:36:03;;;;;;;;;;;;;;;17.70;38.00;100661.96;104667;1290;62076;-81
2024/02/26 07:38:28;;;;;;;;;;;;;;;17.71;37.92;100660.98;104756;1292;62163;-81
2024/02/26 07:40:54;;;;;;;;;;;;;;;17.73;37.96;100662.14;104631;1291;62198;-81
2024/02/26 07:43:19;;;;;;;;;;;;;;;17.76;37.96;100658.44;104524;1294;62181;-81
2024/02/26 07:45:45;;;;;;;;;;;;;;;17.78;37.94;100653.30;104517;1291;62149;-81
2024/02/26 07:48:10;;;;;;;;;;;;;;;17.81;37.97;100653.31;104587;1289;62194;-81
2024/02/26 07:50:36;;;;;;;;;;;;;;;17.84;37.83;100654.05;104692;1290;60215;-81
2024/02/26 07:53:02;;;;;;;;;;;;;;;17.85;37.85;100654.17;104898;1289;62256;-82
2024/02/26 07:55:27;;;;;;;;;;;;;;;17.83;37.83;100650.56;104706;1289;62249;-82
2024/02/26 07:57:53;;;;;;;;;;;;;;;17.78;37.99;100652.77;104682;1289;61740;-80
2024/02/26 08:00:19;;;;;;;;;;;;;;;17.78;38.20;100654.20;104836;1291;61343;-82
2024/02/26 08:02:47;;;;;;;;;;;;;;;17.82;38.22;100656.12;105118;1291;62026;-82
2024/02/26 08:05:13;;;;;;;;;;;;;;;17.84;38.20;100656.52;104702;1289;62103;-81
2024/02/26 08:07:38;;;;;;;;;;;;;;;17.85;38.44;100650.06;104425;1289;62609;-81
2024/02/26 08:10:04;;;;;;;;;;;;;;;17.86;38.33;100654.27;104729;1291;62207;-81
2024/02/26 08:12:29;;;;;;;;;;;;;;;17.88;38.41;100656.27;104537;1289;62101;-81
2024/02/26 08:14:56;;;;;;;;;;;;;;;17.91;38.28;100656.26;104507;1291;60371;-81
2024/02/26 08:17:21;;;;;;;;;;;;;;;17.95;38.48;100651.98;104484;1291;62587;-82
2024/02/26 08:19:46;;;;;;;;;;;;;;;17.99;38.32;100655.67;104490;1290;62180;-81
2024/02/26 08:22:15;;;;;;;;;;;;;;;18.01;38.49;100653.03;104465;1290;62186;-80
2024/02/26 08:24:44;;;;;;;;;;;;;;;18.04;38.46;100655.86;104643;1290;75349;-81
2024/02/26 08:27:10;;;;;;;;;;;;;;;18.08;38.44;100656.01;104303;1290;62155;-80
2024/02/26 08:29:35;;;;;;;;;;;;;;;18.10;38.38;100658.55;104385;1289;62072;-81
2024/02/26 08:32:01;;;;;;;;;;;;;;;18.12;38.38;100657.16;104363;1291;62184;-81
2024/02/26 08:34:26;;;;;;;;;;;;;;;18.14;38.40;100654.39;104712;1291;62147;-80
2024/02/26 08:36:51;;;;;;;;;;;;;;;18.17;38.33;100654.05;104699;1289;62064;-81
2024/02/26 08:39:17;;;;;;;;;;;;;;;18.19;38.35;100659.05;104494;1290;62065;-81
2024/02/26 08:41:43;;;;;;;;;;;;;;;18.22;38.44;100657.84;104515;1289;62108;-79
2024/02/26 08:44:09;;;;;;;;;;;;;;;18.23;38.49;100652.93;104582;1291;62118;-81
2024/02/26 08:46:34;;;;;;;;;;;;;;;18.26;38.47;100656.31;104567;1289;62112;-81
2024/02/26 08:49:00;;;;;;;;;;;;;;;18.29;38.47;100660.81;104644;1290;62220;-81
2024/02/26 08:51:25;;;;;;;;;;;;;;;18.31;38.41;100660.15;104782;1289;62199;-82
2024/02/26 08:53:51;;;;;;;;;;;;;;;18.32;38.65;100656.14;104744;1291;60511;-82
2024/02/26 08:56:17;;;;;;;;;;;;;;;18.32;38.66;100656.14;104729;1291;62230;-81
2024/02/26 08:58:43;;;;;;;;;;;;;;;18.33;38.78;100658.58;104547;1289;64573;-80
2024/02/26 09:01:09;;;;;;;;;;;;;;;18.36;38.85;100659.46;104348;1293;63070;-80
2024/02/26 09:03:35;;;;;;;;;;;;;;;18.38;38.75;100668.09;104712;1290;62280;-81
2024/02/26 09:06:00;;;;;;;;;;;;;;;18.39;39.11;100665.36;104246;1293;62619;-80
2024/02/26 09:08:26;;;;;;;;;;;;;;;18.39;39.00;100666.56;104143;1291;62181;-80
2024/02/26 09:10:52;;;;;;;;;;;;;;;18.40;39.21;100667.23;104306;1289;62234;-80
2024/02/26 09:13:18;;;;;;;;;;;;;;;18.41;39.24;100671.63;104260;1291;62086;-81
2024/02/26 09:15:44;;;;;;;;;;;;;;;18.42;39.28;100671.02;104578;1290;62173;-80
2024/02/26 09:18:09;;;;;;;;;;;;;;;18.43;39.18;100668.64;104090;1290;62140;-81
2024/02/26 09:20:35;;;;;;;;;;;;;;;18.44;39.30;100663.25;104015;1295;62221;-79
2024/02/26 09:23:00;;;;;;;;;;;;;;;18.45;39.28;100663.73;103947;1289;62431;-80
2024/02/26 09:25:26;;;;;;;;;;;;;;;18.47;39.44;100662.73;104293;1289;62212;-80
2024/02/26 09:27:51;;;;;;;;;;;;;;;18.47;39.40;100663.94;104188;1290;62206;-79
2024/02/26 09:30:17;;;;;;;;;;;;;;;18.48;39.30;100661.77;104250;1293;63011;-82
2024/02/26 09:32:45;;;;;;;;;;;;;;;18.50;39.42;100660.39;103985;1295;64409;-83
2024/02/26 09:35:11;;;;;;;;;;;;;;;18.50;39.30;100657.70;103988;1295;62205;-82
2024/02/26 09:37:36;;;;;;;;;;;;;;;18.50;39.33;100652.19;103955;1293;62113;-82
2024/02/26 09:40:03;;;;;;;;;;;;;;;18.50;39.44;100653.95;104058;1292;62196;-81
2024/02/26 09:42:28;;;;;;;;;;;;;;;18.50;39.47;100647.21;104105;1294;62124;-81
2024/02/26 09:44:55;;;;;;;;;;;;;;;18.49;39.43;100649.00;104181;1293;62240;-81
2024/02/26 09:47:21;;;;;;;;;;;;;;;18.51;39.49;100648.23;104344;1289;62037;-81
2024/02/26 09:49:46;;;;;;;;;;;;;;;18.50;39.65;100653.43;104458;1290;62187;-82
2024/02/26 09:52:12;;;;;;;;;;;;;;;18.50;39.70;100647.71;104717;1292;62114;-82
2024/02/26 09:54:38;;;;;;;;;;;;;;;18.43;39.52;100651.20;104651;1289;62840;-81
2024/02/26 09:57:09;;;;;;;;;;;;;;;18.13;39.56;100651.04;104688;1291;62288;-81
2024/02/26 09:59:41;;;;;;;;;;;;;;;18.04;39.98;100653.23;104885;1289;62214;-82
2024/02/26 10:02:09;;;;;;;;;;;;;;;18.04;40.14;100644.85;104819;1290;71534;-82
2024/02/26 10:04:37;;;;;;;;;;;;;;;17.92;40.04;100645.38;105057;1291;75334;-80
2024/02/26 10:07:03;;;;;;;;;;;;;;;17.78;40.18;100641.94;104989;1292;60997;-83
2024/02/26 10:09:29;;;;;;;;;;;;;;;17.55;40.19;100641.83;105253;1290;59999;-81
2024/02/26 10:11:55;;;;;;;;;;;;;;;17.24;40.33;100640.60;104914;1292;62110;-82
2024/02/26 10:14:21;;;;;;;;;;;;;;;17.09;40.66;100642.18;104985;1291;62108;-81
2024/02/26 10:16:47;;;;;;;;;;;;;;;17.11;40.93;100639.23;104582;1294;62102;-79
2024/02/26 10:19:24;;;;;;;;;;;;;;;17.23;40.93;100642.27;105127;1290;60564;-81
2024/02/26 10:21:50;;;;;;;;;;;;;;;17.37;41.11;100639.84;104753;1290;72626;-80
2024/02/26 10:24:15;;;;;;;;;;;;;;;17.48;41.07;100631.21;104740;1288;60273;-80
2024/02/26 10:26:45;;;;;;;;;;;;;;;17.57;41.10;100628.23;104809;1291;60384;-80
2024/02/26 10:29:11;;;;;;;;;;;;;;;17.65;40.97;100631.30;105083;1288;61356;-81
2024/02/26 10:31:42;;;;;;;;;;;;;;;17.66;40.99;100625.36;104956;1288;73912;-83
2024/02/26 10:34:08;;;;;;;;;;;;;;;17.69;40.95;100622.36;104968;1291;75095;-80
2024/02/26 10:36:34;;;;;;;;;;;;;;;17.71;40.96;100624.73;104890;1290;60634;-79
2024/02/26 10:39:01;;;;;;;;;;;;;;;17.77;41.10;100622.21;104779;1290;62195;-80
2024/02/26 10:41:28;;;;;;;;;;;;;;;17.84;41.03;100613.95;104838;1290;60871;-80
2024/02/26 10:43:54;;;;;;;;;;;;;;;17.91;40.97;100614.24;104657;1290;60690;-80
2024/02/26 10:46:19;;;;;;;;;;;;;;;17.98;41.07;100611.05;104813;1290;60351;-81
2024/02/26 10:48:51;;;;;;;;;;;;;;;18.04;40.99;100613.34;104943;1290;60983;-81
2024/02/26 10:51:20;;;;;;;;;;;;;;;18.09;40.94;100609.96;104862;1289;71526;-81
2024/02/26 10:53:46;;;;;;;;;;;;;;;18.12;40.99;100609.98;104725;1290;75368;-81
2024/02/26 10:56:11;;;;;;;;;;;;;;;18.12;40.90;100611.25;104949;1290;62031;-81
2024/02/26 10:58:37;;;;;;;;;;;;;;;18.07;40.87;100606.91;104833;1290;62115;-81
2024/02/26 11:01:02;;;;;;;;;;;;;;;18.01;40.92;100606.16;104639;1290;60642;-80
2024/02/26 11:03:28;;;;;;;;;;;;;;;17.93;40.91;100602.58;104977;1291;60757;-81
2024/02/26 11:05:53;;;;;;;;;;;;;;;17.82;40.97;100600.76;104703;1291;75400;-82
2024/02/26 11:08:21;;;;;;;;;;;;;;;17.77;41.23;100600.69;104737;1290;62294;-81
2024/02/26 11:10:48;;;;;;;;;;;;;;;17.74;41.15;100599.94;105739;1294;61169;-81
2024/02/26 11:13:14;;;;;;;;;;;;;;;17.60;41.18;100591.71;105711;1291;60456;-81
2024/02/26 11:15:39;;;;;;;;;;;;;;;17.52;41.40;100593.10;105801;1291;59926;-81
2024/02/26 11:18:05;;;;;;;;;;;;;;;17.51;41.36;100588.70;105784;1291;60173;-82
2024/02/26 11:20:33;;;;;;;;;;;;;;;17.48;41.47;100587.79;105727;1291;61069;-81
2024/02/26 11:22:59;;;;;;;;;;;;;;;17.53;41.50;100583.58;105702;1291;60324;-83
2024/02/26 11:25:24;;;;;;;;;;;;;;;17.57;41.46;100580.67;105753;1291;59960;-81
2024/02/26 11:27:54;;;;;;;;;;;;;;;17.63;41.53;100579.27;105766;1291;59979;-83
2024/02/26 11:30:19;;;;;;;;;;;;;;;17.67;41.39;100576.72;105752;1291;61065;-82
2024/02/26 11:32:46;;;;;;;;;;;;;;;17.71;41.41;100576.64;105744;1291;60042;-82
2024/02/26 11:35:15;;;;;;;;;;;;;;;17.80;41.58;100578.08;105824;1290;60014;-82
2024/02/26 11:37:40;;;;;;;;;;;;;;;17.88;41.42;100576.68;105959;1290;59863;-82
2024/02/26 11:40:09;;;;;;;;;;;;;;;17.98;41.44;100573.77;104895;1290;62127;-82
2024/02/26 11:42:34;;;;;;;;;;;;;;;18.06;41.62;100569.92;104096;1294;72536;-81
2024/02/26 11:45:01;;;;;;;;;;;;;;;18.13;41.52;100569.16;104335;1291;62172;-82
2024/02/26 11:47:27;;;;;;;;;;;;;;;18.19;41.41;100573.07;104179;1290;62239;-81
2024/02/26 11:49:52;;;;;;;;;;;;;;;18.22;41.40;100570.84;104504;1290;62113;-81
2024/02/26 11:52:18;;;;;;;;;;;;;;;18.27;41.30;100566.84;104414;1290;63705;-81
2024/02/26 11:54:44;;;;;;;;;;;;;;;18.34;41.54;100568.56;104630;1289;62114;-81
2024/02/26 11:57:42;;;;;;;;;;;;;;;18.36;41.49;100566.48;104482;1289;74215;-80
2024/02/26 12:00:16;;;;;;;;;;;;;;;18.35;41.22;100566.67;104412;1296;61319;-82
2024/02/26 12:02:58;;;;;;;;;;;;;;;18.21;41.23;100562.76;104212;1300;60451;-82
2024/02/26 12:05:23;;;;;;;;;;;;;;;18.18;41.35;100563.83;105163;1299;72536;-81
2024/02/26 12:07:50;;;;;;;;;;;;;;;18.13;41.30;100563.06;104006;1300;62324;-82
2024/02/26 12:10:34;;;;;;;;;;;;;;;18.02;41.25;100559.86;105186;1300;60733;-82
2024/02/26 12:13:03;;;;;;;;;;;;;;;17.96;41.50;100557.00;105258;1300;60544;-81
2024/02/26 12:15:37;;;;;;;;;;;;;;;17.95;41.32;100557.79;105238;1300;73620;-80
2024/02/26 12:18:04;;;;;;;;;;;;;;;17.96;41.52;100556.30;105205;1300;75315;-81
2024/02/26 12:20:29;;;;;;;;;;;;;;;17.97;41.41;100555.55;104173;1302;61649;-80
2024/02/26 12:22:55;;;;;;;;;;;;;;;17.94;41.48;100551.98;103721;1299;62398;-81